Erik Nemec

Recruteur - Slovan Bratislava
3 Déc 2028
Dimanche
Processus

Personnalité

Adaptabilité (17) Ambition (18) Controverse (7) Loyauté (20) Pression (18) Professionnalisme (13) Sportivité (6) Tempérament (7)

Profil

Style d'entraînement Démocratique
Diplôme National B
Détermination 7
Gestion des joueurs 8
Motivation 12
Discipline 5
Satisfaction professionnelle
100%
Fatigue
0%
Rôle Recruteur
Salaire 33.1K p/s
Contrat 14.03.2029

Performance

Comportement Bon
Efficacité de l'entraînement
45%
Développement des joueurs
20%
Prévention des blessures
45%
Mise en place tactique
35%

Événements récents

A participé à une réunion de recrutement maintenant
A recommandé une cible de transfert maintenant
A recommandé une cible de transfert maintenant
A recommandé une cible de transfert maintenant
A évalué un joueur maintenant
A évalué un joueur maintenant
A évalué un joueur 7j
A évalué un joueur 7j

Suivi en cours

165
Joueur Club Statut Capacité Confiance Observé Dernière observation Dernier vote
Radek Vítek Middlesbrough Actif 153 / 153 40% 8 01.12.2028 -
Manuel Roffo HNK Rijeka Actif 130 / 132 40% 6 01.12.2028 -
Daniel Peretz Wolverhampton Actif 153 / 148 40% 7 30.11.2028 -
Emil Audero Como Actif 139 / 138 40% 1 30.11.2028 -
Mads Hermansen West Ham United Actif 144 / 155 40% 7 29.11.2028 -
Lautaro Morales Lanús Actif 143 / 140 40% 6 29.11.2028 -
George Wickens Blackpool Actif 132 / 130 40% 1 28.11.2028 -
Vítězslav Jaroš Preston Actif 158 / 147 40% 1 28.11.2028 -
Sol Brynn Bradford City Actif 145 / 138 40% 5 26.11.2028 -
Unai Marrero Real Sociedad Actif 137 / 141 40% 2 26.11.2028 -
Leny Yoro Preston Actif 152 / 158 40% 2 26.11.2028 -
Johan Manzambi Millwall Actif 160 / 157 40% 2 26.11.2028 -
Lukáš Horníček Burnley Actif 147 / 157 40% 8 24.11.2028 -
Viktor Johansson Bournemouth Actif 140 / 140 40% 4 24.11.2028 -
Joe Rodon Blackburn Rovers Actif 142 / 152 40% 1 24.11.2028 -
Malick Thiaw Ipswich Town Actif 164 / 157 40% 2 23.11.2028 -
Jake O'Brien Everton Actif 144 / 153 40% 1 23.11.2028 -
Vitaly Janelt Derby County Actif 157 / 145 40% 2 21.11.2028 -
Alex Bass Peterborough United Actif 126 / 124 40% 1 21.11.2028 -
Imrân Louza Ludogorets Actif 142 / 134 40% 1 20.11.2028 -
Xaver Schlager Nottingham Forest Actif 156 / 152 40% 1 20.11.2028 -
Abduvohid Ne'matov Nasaf Actif 117 / 124 40% 3 19.11.2028 -
Robert Sánchez Newcastle United Actif 162 / 158 40% 5 19.11.2028 -
Alejandro Rodríguez Melgar Actif 138 / 117 40% 2 16.11.2028 -
Franco Ibarra Rosario Central Actif 117 / 131 40% 3 14.11.2028 -
Robin Roefs Sunderland Actif 145 / 151 40% 6 14.11.2028 -
Cheick Doucouré Crystal Palace Actif 159 / 155 40% 2 14.11.2028 -
Lukas Jensen Millwall Actif 128 / 125 40% 5 12.11.2028 -
Tomás Durso Sarmiento Actif 141 / 116 40% 4 11.11.2028 -
Nordi Mukiele Sunderland Actif 146 / 149 40% 1 11.11.2028 -
Josh Keeley Luton Town Actif 133 / 148 40% 7 08.11.2028 -
James Trafford Leeds United Actif 153 / 157 40% 4 08.11.2028 -
Anthony Patterson Wrexham Actif 138 / 139 40% 9 07.11.2028 -
Mark Travers Leicester City Actif 152 / 148 40% 4 07.11.2028 -
Andrey Santos Bolton Wanderers Actif 155 / 148 40% 1 07.11.2028 -
Jonathan De Irastorza Independiente Actif 147 / 143 40% 1 07.11.2028 -
Felipe Peña Biafore Lanús Actif 120 / 131 40% 3 06.11.2028 -
Dean Henderson Crystal Palace Actif 166 / 151 40% 8 06.11.2028 -
Aaron Ramsdale Southampton Actif 168 / 161 40% 4 01.11.2028 -
Luis Ingolotti Atlético Tucumán Actif 136 / 136 40% 5 31.10.2028 -
Ferdi Kadıoğlu Brighton Actif 155 / 151 40% 1 30.10.2028 -
Evander Wolverhampton Actif 152 / 153 40% 1 30.10.2028 -
Caoimhin Kelleher Brentford Actif 169 / 163 40% 3 28.10.2028 -
Kostantis Tzolakis Brighton Actif 160 / 150 40% 6 28.10.2028 -
Samuel Brolin Kalmar FF Actif 145 / 115 40% 2 25.10.2028 -
Lewis Hall Newcastle United Actif 168 / 162 40% 1 25.10.2028 -
James Beadle Hull City Actif 138 / 148 40% 1 22.10.2028 -
Vladan Kovačević Norwich City Actif 126 / 135 40% 3 21.10.2028 -
António Silva Bournemouth Actif 161 / 153 40% 1 21.10.2028 -
Jhon Solís Birmingham Actif 139 / 147 40% 1 21.10.2028 -
Jonmi Magunagoitia Eibar Actif 146 / 140 40% 2 17.10.2028 -
Tyrick Mitchell Newcastle United Actif 153 / 157 40% 1 14.10.2028 -
Teddy Sharman-Lowe Barnsley Actif 138 / 131 40% 1 13.10.2028 -
Balázs Tóth Blackburn Rovers Actif 140 / 145 40% 1 12.10.2028 -
Giorgi Mamardashvili Liverpool Actif 177 / 174 40% 1 12.10.2028 -
Carlos Marín Albacete Actif 146 / 136 40% 6 08.10.2028 -
Facundo Sanguinetti Banfield Actif 115 / 126 40% 3 08.10.2028 -
Matthew Cox Rotherham United Actif 127 / 127 40% 3 06.10.2028 -
Sander Berge Derby County Actif 158 / 159 40% 2 05.10.2028 -
Oliver Dovin Coventry City Actif 155 / 150 40% 2 01.10.2028 -
Cristopher Varela Deportivo La Guaira Actif 117 / 118 40% 3 14.09.2028 -
Thimothée Lo-Tutala Stoke City Actif 122 / 125 40% 2 12.09.2028 -
Jakub Stolarczyk Middlesbrough Actif 142 / 159 40% 1 04.09.2028 -
Antonín Kinský Tottenham Actif 161 / 162 40% 1 02.09.2028 -
Oufa Shobeir MC Alger Actif 134 / 140 40% 1 29.08.2028 -
Leopold Wahlstedt Rosenborg Actif 145 / 130 40% 1 28.08.2028 -
Jay Gorter Pafos Actif 135 / 142 40% 1 24.08.2028 -
Fabrizio Correa Juventud Actif 114 / 124 40% 1 22.08.2028 -
Christos Mandas Lazio Actif 160 / 149 40% 3 18.08.2028 -
Joaquín Blázquez Talleres Actif 111 / 135 40% 1 17.08.2028 -
Gianluigi Donnarumma AS Roma Actif 173 / 169 40% 2 16.08.2028 -
Lucas Da Cunha Como Actif 154 / 161 40% 1 14.08.2028 -
Michele Cerofolini Empoli Actif 142 / 139 40% 3 12.08.2028 -
Carlos Miguel Palmeiras Actif 119 / 138 40% 1 12.08.2028 -
Elia Caprile Cagliari Actif 158 / 163 40% 5 03.08.2028 -
Bobby Thomas Grimsby Town Actif 145 / 148 40% 1 31.07.2028 -
Fran Vieites Walsall Actif 126 / 136 40% 4 29.07.2028 -
Riccardo Gagno Vicenza Actif 137 / 118 40% 2 28.07.2028 -
Vanja Milinković-Savić Atalanta Actif 159 / 155 40% 1 28.07.2028 -
Nathan Trott Cardiff City Actif 124 / 134 40% 4 26.07.2028 -
Jamie Donley West Bromwich Albion Actif 132 / 126 40% 1 24.07.2028 -
Jayden Addai Bari Actif 134 / 143 40% 1 24.07.2028 -
Murphy Cooper Plymouth Argyle Actif 126 / 132 40% 2 22.07.2028 -
Joe Whitworth Wigan Athletic Actif 130 / 127 40% 1 18.07.2028 -
Jonathan Klinsmann Cesena Actif 123 / 128 40% 4 03.07.2028 -
Žan Trontelj DAC Dunajska Streda Actif 104 / 104 58% 1 26.06.2028 Approuver
Kasey McAteer Barnsley Perdu 137 / 140 40% 1 26.06.2028 -
Alex Meret Napoli Actif 148 / 151 40% 3 22.06.2028 -
Gaëtan Coucke Sampdoria Actif 126 / 125 40% 2 17.06.2028 -
Amir Saipi Mallorca Actif 131 / 132 40% 1 17.06.2028 -
Federico Martínez MFK Ruzomberok Actif 114 / 121 58% 1 03.06.2028 Approuver
Tsotne Kapanadze DAC Dunajska Streda Actif 114 / 106 58% 1 02.06.2028 Approuver
Nicolò Zaniolo Udinese Actif 153 / 140 40% 1 31.05.2028 -
Lamare Bogarde Reading Actif 139 / 138 40% 1 26.01.2028 -
Thierry Small Preston Actif 137 / 120 40% 1 26.01.2028 -
František Kóša MSK Zilina Actif 86 / 111 58% 1 24.01.2028 -
Ignacio Perruzzi San Lorenzo Actif 127 / 137 40% 4 13.12.2027 -
Alexis Steimbach Gimnasia La Plata Actif 133 / 113 40% 1 13.12.2027 -
Matías Galarza Talleres Actif 114 / 122 40% 5 12.12.2027 -
Bruno Leyes Godoy Cruz Actif 117 / 123 40% 2 12.12.2027 -
Alex Scott Bournemouth Actif 156 / 160 40% 1 10.12.2027 -
Agustín Sández Newell's Old Boys Actif 113 / 123 40% 1 06.12.2027 -
Emanuel Mammana Vélez Actif 140 / 119 40% 1 25.11.2027 -
Lucas Carrizo Newell's Old Boys Actif 119 / 136 40% 1 25.11.2027 -
Stefano Moreyra Independiente Rivadavia Actif 115 / 109 40% 1 24.11.2027 -
Guillermo Enrique Huracán Actif 136 / 131 40% 1 24.11.2027 -
Emanuel Coronel Rosario Central Actif 142 / 134 40% 1 23.11.2027 -
Saúl Salcedo Newell's Old Boys Actif 111 / 128 40% 1 23.11.2027 -
Ignacio Vázquez Platense Actif 132 / 114 40% 4 20.11.2027 -
Aarón Quiros Vélez Actif 128 / 133 40% 2 19.11.2027 -
Neco Williams Wrexham Actif 157 / 141 40% 1 19.11.2027 -
Matias Siltanen Malmo FF Actif 134 / 143 40% 2 10.11.2027 -
Joaquín García Vélez Actif 114 / 117 40% 3 05.11.2027 -
José Florentín Independiente Rivadavia Actif 107 / 118 40% 3 03.11.2027 -
Damián Fernández Defensa y Justicia Actif 143 / 140 40% 3 01.11.2027 -
Sasha Marcich Lanús Actif 142 / 134 40% 1 30.10.2027 -
Gastón Hernández San Lorenzo Actif 112 / 113 40% 4 29.10.2027 -
Sebastián Valdez Independiente Actif 115 / 113 40% 1 23.10.2027 -
Gianluca Ferrari Atlético Tucumán Actif 108 / 125 40% 1 22.10.2027 -
Alexis Maldonado Belgrano Actif 111 / 118 40% 2 12.10.2027 -
Adrián Sánchez Belgrano Actif 121 / 111 40% 1 11.10.2027 -
Vicente Poggi Godoy Cruz Actif 110 / 140 40% 2 10.10.2027 -
Rodrigo Herrera Newell's Old Boys Actif 110 / 134 40% 2 08.10.2027 -
Lucas Souto Defensa y Justicia Actif 118 / 113 40% 1 06.10.2027 -
Nazareno Colombo Racing Club Actif 117 / 130 40% 3 29.09.2027 -
Santiago González Tigre Actif 115 / 143 40% 2 27.09.2027 -
Hernán de la Fuente Instituto Actif 129 / 130 40% 1 25.09.2027 -
Franco Díaz Temperley Actif 112 / 112 40% 1 20.09.2027 -
Nicolás Tripichio San Lorenzo Actif 112 / 109 40% 1 19.09.2027 -
Roberto Ramírez Godoy Cruz Actif 106 / 120 40% 1 20.08.2027 -
Nelson Insfrán Gimnasia La Plata Actif 109 / 127 40% 1 19.08.2027 -
Alexis Guendouz JS Kabylie Actif 134 / 132 40% 1 17.08.2027 -
Andrea Zaccagno Torres Actif 106 / 120 40% 1 11.08.2027 -
Gianmarco Vannucchi Benevento Actif 131 / 125 40% 1 08.08.2027 -
Erik Sabo Spartak Trnava Actif 100 / 100 58% 1 26.07.2027 -
Andreas Gruber DAC Dunajska Streda Actif 127 / 108 58% 1 14.06.2027 -
Junior Tchamadeu Stoke City Actif 129 / 125 40% 1 14.06.2027 -
Kazunari Kita Real Sociedad Actif 98 / 105 40% 6 27.05.2027 -
Charlie Gray Fleetwood Town Actif 84 / 106 40% 2 27.05.2027 -
Tommaso Cecotti Carpi Actif 96 / 107 40% 2 26.05.2027 -
Zane Albarus Shrewsbury Town Actif 98 / 96 40% 1 25.05.2027 -
Victor Hernandez Santa Fe Actif 124 / 123 40% 1 25.05.2027 -
Kamaldeen Atiemo Wa All Stars Actif 101 / 119 40% 1 24.05.2027 -
Gonçalo Oliveira Benfica Actif 111 / 106 40% 2 22.05.2027 -
Martim Cunha Porto Actif 100 / 112 40% 2 15.05.2027 -
Andrea Bertoncini Triestina Actif 97 / 99 40% 1 14.05.2027 -
Josh Acheampong Everton Actif 136 / 133 40% 1 11.05.2027 -
Ezra Mayers West Ham United Actif 117 / 134 40% 2 08.05.2027 -
Alessandro Zoboletti Sambenedettese Actif 90 / 84 40% 1 03.05.2027 -
Caleb Yirenkyi Coventry City Actif 130 / 129 40% 1 28.04.2027 -
Afriyie Sulemana WAFA Actif 93 / 82 40% 1 24.04.2027 -
Jan Bürger Northampton Town Actif 118 / 118 40% 1 24.04.2027 -
Samuele di Benedetto Twente Actif 122 / 123 40% 1 14.04.2027 -
Bernardo Lima Porto Actif 107 / 96 40% 1 13.04.2027 -
Chari Giwa US Bougouni Actif 90 / 77 40% 1 10.04.2027 -
Kiani Inge Groningen Actif 95 / 116 40% 1 08.04.2027 -
Simphiwe Selepe Orlando Pirates Actif 125 / 128 40% 1 31.12.2026 -
Cheveyo Tsawa Club Brugge Actif 108 / 130 40% 2 14.12.2026 -
Timotej Hranica MSK Zilina Actif 87 / 108 40% 1 14.12.2026 -
David Ozoh Derby County Actif 122 / 129 40% 1 21.11.2026 -
Jakub Suslov FK Senica Actif 113 / 123 40% 1 19.11.2026 -
Louis Leroux FC Nantes Actif 120 / 127 40% 1 19.11.2026 -
Bade Aluko Leicester City Actif 118 / 110 40% 1 05.11.2026 -
Šimon Faško Podbrezova Actif 89 / 114 40% 1 07.10.2026 -
Agustín Medina Lanús Actif 100 / 116 40% 1 06.10.2026 -